createdAt,value
2019-04-05T00:00:22.156Z,5.90
2019-04-05T00:02:51.073Z,6.00
2019-04-05T00:05:20.039Z,6.00
2019-04-05T00:07:49.059Z,6.10
2019-04-05T00:10:18.166Z,5.90
2019-04-05T00:12:48.039Z,5.70
2019-04-05T00:15:17.112Z,5.70
2019-04-05T00:17:46.097Z,5.80
2019-04-05T00:20:16.113Z,5.90
2019-04-05T00:22:45.043Z,5.80
2019-04-05T00:25:14.384Z,5.80
2019-04-05T00:27:43.228Z,6.00
2019-04-05T00:30:12.421Z,6.00
2019-04-05T00:32:42.326Z,5.80
2019-04-05T00:35:11.741Z,5.70
2019-04-05T00:37:40.665Z,5.70
2019-04-05T00:40:10.056Z,5.70
2019-04-05T00:42:38.996Z,5.80
2019-04-05T00:45:08.514Z,5.90
2019-04-05T00:47:37.501Z,5.80
2019-04-05T00:50:07.467Z,5.90
2019-04-05T00:52:36.794Z,5.80
2019-04-05T00:55:06.461Z,6.00
2019-04-05T00:57:35.769Z,6.00
2019-04-05T01:00:05.641Z,6.00
2019-04-05T01:02:34.937Z,5.90
2019-04-05T01:05:04.305Z,5.90
2019-04-05T01:07:33.300Z,6.00
2019-04-05T01:10:02.428Z,6.10
2019-04-05T01:12:32.167Z,6.10
2019-04-05T01:15:02.254Z,5.90
2019-04-05T01:17:31.229Z,5.90
2019-04-05T01:20:03.200Z,6.00
2019-04-05T01:22:34.215Z,6.10
2019-04-05T01:25:03.955Z,6.10
2019-04-05T01:27:34.637Z,5.90
2019-04-05T01:30:05.035Z,5.90
2019-04-05T01:32:34.157Z,5.90
2019-04-05T01:35:03.235Z,6.00
2019-04-05T01:37:32.149Z,5.90
2019-04-05T01:40:01.569Z,5.80
2019-04-05T01:42:31.701Z,5.90
2019-04-05T01:45:01.236Z,6.00
2019-04-05T01:47:30.285Z,5.90
2019-04-05T01:49:59.605Z,5.90
2019-04-05T01:52:28.804Z,5.80
2019-04-05T01:54:57.803Z,5.80
2019-04-05T01:57:27.022Z,5.90
2019-04-05T01:59:55.961Z,5.90
2019-04-05T02:02:25.224Z,5.90
2019-04-05T02:04:54.155Z,6.00
2019-04-05T02:07:23.348Z,5.90
2019-04-05T02:09:52.851Z,5.80
2019-04-05T02:12:22.498Z,5.70
2019-04-05T02:14:51.539Z,5.60
2019-04-05T02:17:20.571Z,5.50
2019-04-05T02:19:49.553Z,5.70
2019-04-05T02:22:18.861Z,5.70
2019-04-05T02:24:47.882Z,5.70
2019-04-05T02:27:17.164Z,5.80
2019-04-05T02:29:46.148Z,5.80
2019-04-05T02:32:15.158Z,5.80
2019-04-05T02:34:44.146Z,5.90
2019-04-05T02:37:13.141Z,5.80
2019-04-05T02:39:42.388Z,5.90
2019-04-05T02:42:12.397Z,5.90
2019-04-05T02:44:43.017Z,5.90
2019-04-05T02:47:13.042Z,5.90
2019-04-05T02:49:43.017Z,6.00
2019-04-05T02:52:12.723Z,5.90
2019-04-05T02:54:42.826Z,5.90
2019-04-05T02:57:12.327Z,5.90
2019-04-05T02:59:42.170Z,5.80
2019-04-05T03:02:11.365Z,5.80
2019-04-05T03:04:40.771Z,5.80
2019-04-05T03:07:09.765Z,5.80
2019-04-05T03:09:39.412Z,5.90
2019-04-05T03:12:08.758Z,6.00
2019-04-05T03:14:38.483Z,6.00
2019-04-05T03:17:08.433Z,5.90
2019-04-05T03:19:38.543Z,5.90
2019-04-05T03:22:10.492Z,6.00
2019-04-05T03:24:41.581Z,5.80
2019-04-05T03:27:16.261Z,5.80
2019-04-05T03:29:45.447Z,5.80
2019-04-05T03:32:15.669Z,5.80
2019-04-05T03:34:44.719Z,5.80
2019-04-05T03:37:14.381Z,5.80
2019-04-05T03:39:43.658Z,5.70
2019-04-05T03:42:12.862Z,5.60
2019-04-05T03:44:42.232Z,5.50
2019-04-05T03:47:11.623Z,5.60
2019-04-05T03:49:40.722Z,5.70
2019-04-05T03:52:09.937Z,5.80
2019-04-05T03:54:39.308Z,5.80
2019-04-05T03:57:08.458Z,5.80
2019-04-05T03:59:38.073Z,5.80
2019-04-05T04:02:07.446Z,5.90
2019-04-05T04:04:36.691Z,5.80
2019-04-05T04:07:06.161Z,5.80
2019-04-05T04:09:35.523Z,5.80
2019-04-05T04:12:04.830Z,5.70
2019-04-05T04:14:33.745Z,5.80
2019-04-05T04:17:12.133Z,5.90
2019-04-05T04:19:34.111Z,5.90
2019-04-05T04:22:18.026Z,5.90
2019-04-05T04:24:47.569Z,6.00
2019-04-05T04:27:17.078Z,5.80
2019-04-05T04:29:46.260Z,5.80
2019-04-05T04:32:15.701Z,5.90
2019-04-05T04:34:45.086Z,5.90
2019-04-05T04:37:14.074Z,6.00
2019-04-05T04:39:43.273Z,6.00
2019-04-05T04:42:12.611Z,6.00
2019-04-05T04:44:42.553Z,5.90
2019-04-05T04:47:25.526Z,5.90
2019-04-05T04:49:43.418Z,5.80
2019-04-05T04:52:12.838Z,5.90
2019-04-05T04:54:41.882Z,5.90
2019-04-05T04:57:10.897Z,5.90
2019-04-05T04:59:40.118Z,6.00
2019-04-05T05:02:09.413Z,6.00
2019-04-05T05:04:38.712Z,6.10
2019-04-05T05:07:08.286Z,6.00
2019-04-05T05:09:37.388Z,6.00
2019-04-05T05:12:06.739Z,5.90
2019-04-05T05:14:35.817Z,5.90
2019-04-05T05:17:04.816Z,6.00
2019-04-05T05:19:34.204Z,6.00
2019-04-05T05:22:03.301Z,6.00
2019-04-05T05:24:32.491Z,6.00
2019-04-05T05:27:01.790Z,6.00
2019-04-05T05:29:30.898Z,5.90
2019-04-05T05:32:00.073Z,6.00
2019-04-05T05:34:29.305Z,6.50
2019-04-05T05:36:59.165Z,6.50
2019-04-05T05:39:28.362Z,6.50
2019-04-05T05:41:57.402Z,6.80
2019-04-05T05:44:26.417Z,6.90
2019-04-05T05:46:55.610Z,7.10
2019-04-05T05:49:24.968Z,7.20
2019-04-05T05:51:54.097Z,7.30
2019-04-05T05:54:23.312Z,7.40
2019-04-05T05:56:52.324Z,7.60
2019-04-05T05:59:21.360Z,7.70
2019-04-05T06:01:50.374Z,7.80
2019-04-05T06:04:19.232Z,7.70
2019-04-05T06:06:48.365Z,7.60
2019-04-05T06:09:17.541Z,7.50
2019-04-05T06:11:46.534Z,7.70
2019-04-05T06:14:15.625Z,7.70
2019-04-05T06:16:46.530Z,7.40
2019-04-05T06:19:16.301Z,7.50
2019-04-05T06:21:45.136Z,7.70
2019-04-05T06:24:14.358Z,7.70
2019-04-05T06:26:43.573Z,7.70
2019-04-05T06:29:12.733Z,7.50
2019-04-05T06:31:41.733Z,7.30
2019-04-05T06:34:10.751Z,6.90
2019-04-05T06:36:39.992Z,6.90
2019-04-05T06:39:09.163Z,7.20
2019-04-05T06:41:38.157Z,7.60
2019-04-05T06:44:07.433Z,7.60
2019-04-05T06:46:36.363Z,7.30
2019-04-05T06:49:05.363Z,7.00
2019-04-05T06:51:34.290Z,6.70
2019-04-05T06:54:03.544Z,6.70
2019-04-05T06:56:32.649Z,7.00
2019-04-05T06:59:01.654Z,7.30
2019-04-05T07:01:30.729Z,7.40
2019-04-05T07:03:59.676Z,7.00
2019-04-05T07:06:28.582Z,6.60
2019-04-05T07:08:57.507Z,6.90
2019-04-05T07:11:26.563Z,7.20
2019-04-05T07:13:55.571Z,7.10
2019-04-05T07:16:24.753Z,7.00
2019-04-05T07:18:53.738Z,7.10
2019-04-05T07:21:22.590Z,7.30
2019-04-05T07:23:51.431Z,6.70
2019-04-05T07:26:21.069Z,7.00
2019-04-05T07:28:50.218Z,7.30
2019-04-05T07:31:19.222Z,7.50
2019-04-05T07:33:48.150Z,7.40
2019-04-05T07:36:17.015Z,6.90
2019-04-05T07:38:45.938Z,6.90
2019-04-05T07:41:14.932Z,6.90
2019-04-05T07:43:43.844Z,6.80
2019-04-05T07:46:12.783Z,6.60
2019-04-05T07:48:45.115Z,6.40
2019-04-05T07:51:12.698Z,6.30
2019-04-05T07:53:41.722Z,6.70
2019-04-05T07:56:10.734Z,6.70
2019-04-05T07:58:39.726Z,6.50
2019-04-05T08:01:08.729Z,6.60
2019-04-05T08:03:38.244Z,7.30
2019-04-05T08:06:07.266Z,7.40
2019-04-05T08:09:09.137Z,7.60
2019-04-05T08:11:39.957Z,7.80
2019-04-05T08:14:10.290Z,7.60
2019-04-05T08:16:39.293Z,7.30
2019-04-05T08:19:08.284Z,7.00
2019-04-05T08:21:37.267Z,7.00
2019-04-05T08:24:06.341Z,7.10
2019-04-05T08:26:35.597Z,7.30
2019-04-05T08:29:05.183Z,7.70
2019-04-05T08:31:34.437Z,7.80
2019-04-05T08:34:03.362Z,8.00
2019-04-05T08:36:32.848Z,7.80
2019-04-05T08:39:02.527Z,7.50
2019-04-05T08:41:31.454Z,7.30
2019-04-05T08:44:00.298Z,7.50
2019-04-05T08:46:29.229Z,7.30
2019-04-05T08:49:09.970Z,7.60
2019-04-05T08:51:29.217Z,7.90
2019-04-05T08:53:58.149Z,8.00
2019-04-05T08:56:27.068Z,8.10
2019-04-05T08:58:56.069Z,8.00
2019-04-05T09:01:25.067Z,7.90
2019-04-05T09:03:53.950Z,8.10
2019-04-05T09:06:22.991Z,8.30
2019-04-05T09:08:51.999Z,8.60
2019-04-05T09:11:20.899Z,8.80
2019-04-05T09:13:49.926Z,8.90
2019-04-05T09:16:18.896Z,8.60
2019-04-05T09:18:49.380Z,8.40
2019-04-05T09:21:18.465Z,8.50
2019-04-05T09:23:47.686Z,8.30
2019-04-05T09:26:16.606Z,8.10
2019-04-05T09:28:45.542Z,8.00
2019-04-05T09:31:14.683Z,8.20
2019-04-05T09:33:44.045Z,8.30
2019-04-05T09:36:13.349Z,8.50
2019-04-05T09:38:42.731Z,8.90
2019-04-05T09:41:11.841Z,8.90
2019-04-05T09:43:40.769Z,8.70
2019-04-05T09:46:09.933Z,8.90
2019-04-05T09:48:38.858Z,9.10
2019-04-05T09:51:07.869Z,9.20
2019-04-05T09:53:37.207Z,9.20
2019-04-05T09:56:06.244Z,9.20
2019-04-05T09:58:35.304Z,9.40
2019-04-05T10:01:04.431Z,9.40
2019-04-05T10:03:33.367Z,9.30
2019-04-05T10:06:03.075Z,9.20
2019-04-05T10:08:32.278Z,9.30
2019-04-05T10:11:01.206Z,9.40
2019-04-05T10:13:30.066Z,9.70
2019-04-05T10:15:58.921Z,9.70
2019-04-05T10:18:27.772Z,9.80
2019-04-05T10:20:56.764Z,9.60
2019-04-05T10:23:25.966Z,9.40
2019-04-05T10:25:54.880Z,9.30
2019-04-05T10:28:23.869Z,9.70
2019-04-05T10:30:52.805Z,9.50
2019-04-05T10:33:22.216Z,9.50
2019-04-05T10:35:51.077Z,9.20
2019-04-05T10:38:20.416Z,9.10
2019-04-05T10:40:49.456Z,9.30
2019-04-05T10:43:18.492Z,9.40
2019-04-05T10:45:48.091Z,9.50
2019-04-05T10:48:17.036Z,9.40
2019-04-05T10:50:45.991Z,9.40
2019-04-05T10:53:14.998Z,9.50
2019-04-05T10:55:44.005Z,9.40
2019-04-05T10:58:12.932Z,9.30
2019-04-05T11:00:42.338Z,9.50
2019-04-05T11:03:11.657Z,9.60
2019-04-05T11:05:40.866Z,9.60
2019-04-05T11:08:09.712Z,9.60
2019-04-05T11:10:38.700Z,9.40
2019-04-05T11:13:07.618Z,9.40
2019-04-05T11:15:36.883Z,9.40
2019-04-05T11:18:05.868Z,9.60
2019-04-05T11:20:34.873Z,9.60
2019-04-05T11:23:03.863Z,9.70
2019-04-05T11:25:33.073Z,9.80
2019-04-05T11:28:02.027Z,9.90
2019-04-05T11:30:44.537Z,10.00
2019-04-05T11:33:13.652Z,9.90
2019-04-05T11:35:43.360Z,9.90
2019-04-05T11:38:13.831Z,9.80
2019-04-05T11:40:43.732Z,9.80
2019-04-05T11:43:12.833Z,10.10
2019-04-05T11:45:41.829Z,10.30
2019-04-05T11:48:10.740Z,10.20
2019-04-05T11:50:39.665Z,10.40
2019-04-05T11:53:08.770Z,10.30
2019-04-05T11:55:37.761Z,10.30
2019-04-05T11:58:06.702Z,10.50
2019-04-05T12:01:00.822Z,10.40
2019-04-05T12:03:30.214Z,10.50
2019-04-05T12:05:59.134Z,10.50
2019-04-05T12:08:28.154Z,10.30
2019-04-05T12:10:57.349Z,10.60
2019-04-05T12:13:26.192Z,10.50
2019-04-05T12:15:58.037Z,10.60
2019-04-05T12:18:26.101Z,10.50
2019-04-05T12:20:59.917Z,10.50
2019-04-05T12:23:25.930Z,10.50
2019-04-05T12:25:54.961Z,10.50
2019-04-05T12:28:24.062Z,10.60
2019-04-05T12:30:53.065Z,10.80
2019-04-05T12:33:22.092Z,10.60
2019-04-05T12:35:52.945Z,10.60
2019-04-05T12:38:32.442Z,10.60
2019-04-05T12:41:03.121Z,10.60
2019-04-05T12:43:32.864Z,10.70
2019-04-05T12:46:01.861Z,10.80
2019-04-05T12:48:31.189Z,10.80
2019-04-05T12:51:01.317Z,10.80
2019-04-05T12:53:30.738Z,10.90
2019-04-05T12:55:59.585Z,11.00
2019-04-05T12:58:28.457Z,11.00
2019-04-05T13:00:57.499Z,11.10
2019-04-05T13:03:26.558Z,11.30
2019-04-05T13:05:57.116Z,11.50
2019-04-05T13:08:26.676Z,11.70
2019-04-05T13:10:56.898Z,11.80
2019-04-05T13:13:27.552Z,11.80
2019-04-05T13:15:59.177Z,11.70
2019-04-05T13:18:30.757Z,11.50
2019-04-05T13:20:58.281Z,11.40
2019-04-05T13:23:28.677Z,11.40
2019-04-05T13:25:57.593Z,11.40
2019-04-05T13:28:26.530Z,11.40
2019-04-05T13:30:55.722Z,11.40
2019-04-05T13:33:24.836Z,11.50
2019-04-05T13:35:53.850Z,11.60
2019-04-05T13:38:22.884Z,11.40
2019-04-05T13:40:51.886Z,11.40
2019-04-05T13:43:21.271Z,11.30
2019-04-05T13:45:50.265Z,11.20
2019-04-05T13:48:19.199Z,11.30
2019-04-05T13:50:48.133Z,11.30
2019-04-05T13:53:17.085Z,11.30
2019-04-05T13:55:47.559Z,11.40
2019-04-05T13:58:16.779Z,11.40
2019-04-05T14:00:48.378Z,11.40
2019-04-05T14:03:16.363Z,11.30
2019-04-05T14:05:45.616Z,11.30
2019-04-05T14:08:14.798Z,11.30
2019-04-05T14:10:43.863Z,11.30
2019-04-05T14:13:12.974Z,11.40
2019-04-05T14:15:42.917Z,11.50
2019-04-05T14:18:14.482Z,11.50
2019-04-05T14:20:42.819Z,11.60
2019-04-05T14:23:11.838Z,11.60
2019-04-05T14:25:40.825Z,11.50
2019-04-05T14:28:09.681Z,11.60
2019-04-05T14:30:38.530Z,11.60
2019-04-05T14:33:07.794Z,11.50
2019-04-05T14:35:36.805Z,11.50
2019-04-05T14:38:06.048Z,11.60
2019-04-05T14:40:35.339Z,11.60
2019-04-05T14:43:05.115Z,11.50
2019-04-05T14:45:34.193Z,11.60
2019-04-05T14:48:03.212Z,11.50
2019-04-05T14:50:32.251Z,11.60
2019-04-05T14:53:02.012Z,11.70
2019-04-05T14:55:31.377Z,11.80
2019-04-05T14:58:00.378Z,11.90
2019-04-05T15:00:29.457Z,12.00
2019-04-05T15:02:58.650Z,12.10
2019-04-05T15:05:27.689Z,11.90
2019-04-05T15:07:56.618Z,11.90
2019-04-05T15:10:26.236Z,11.80
2019-04-05T15:12:55.141Z,11.70
2019-04-05T15:15:24.083Z,11.90
2019-04-05T15:17:53.625Z,12.10
2019-04-05T15:20:23.505Z,12.20
2019-04-05T15:22:52.430Z,12.10
2019-04-05T15:25:21.990Z,11.90
2019-04-05T15:27:55.185Z,11.90
2019-04-05T15:30:25.514Z,12.00
2019-04-05T15:32:52.765Z,12.00
2019-04-05T15:35:21.697Z,12.00
2019-04-05T15:37:50.620Z,12.00
2019-04-05T15:40:20.160Z,12.00
2019-04-05T15:42:49.369Z,12.10
2019-04-05T15:45:18.585Z,12.10
2019-04-05T15:47:47.582Z,11.90
2019-04-05T15:50:16.860Z,11.80
2019-04-05T15:52:45.772Z,11.80
2019-04-05T15:55:14.781Z,11.70
2019-04-05T15:57:43.709Z,11.70
2019-04-05T16:00:15.226Z,11.50
2019-04-05T16:02:44.263Z,11.60
2019-04-05T16:05:13.813Z,11.60
2019-04-05T16:07:42.801Z,11.60
2019-04-05T16:10:12.041Z,11.60
2019-04-05T16:12:41.030Z,11.70
2019-04-05T16:15:10.437Z,11.60
2019-04-05T16:17:39.366Z,11.60
2019-04-05T16:20:09.249Z,11.50
2019-04-05T16:22:38.456Z,11.40
2019-04-05T16:25:08.090Z,11.40
2019-04-05T16:27:37.021Z,11.40
2019-04-05T16:30:06.729Z,11.50
2019-04-05T16:32:35.665Z,11.40
2019-04-05T16:35:04.890Z,11.40
2019-04-05T16:37:33.816Z,11.50
2019-04-05T16:40:03.982Z,11.50
2019-04-05T16:42:33.031Z,11.60
2019-04-05T16:45:02.051Z,11.70
2019-04-05T16:47:31.344Z,11.60
2019-04-05T16:50:00.269Z,11.70
2019-04-05T16:52:29.638Z,11.70
2019-04-05T16:54:58.610Z,11.70
2019-04-05T16:57:29.674Z,11.50
2019-04-05T16:59:58.668Z,11.40
2019-04-05T17:02:27.534Z,11.20
2019-04-05T17:04:56.465Z,11.10
2019-04-05T17:07:25.657Z,11.20
2019-04-05T17:09:55.089Z,11.30
2019-04-05T17:12:24.026Z,11.20
2019-04-05T17:14:52.950Z,11.10
2019-04-05T17:17:21.810Z,11.10
2019-04-05T17:19:50.809Z,11.20
2019-04-05T17:22:19.989Z,11.10
2019-04-05T17:24:48.990Z,11.00
2019-04-05T17:27:17.934Z,11.10
2019-04-05T17:29:46.954Z,11.10
2019-04-05T17:32:16.034Z,11.20
2019-04-05T17:34:44.887Z,11.20
2019-04-05T17:37:14.185Z,11.00
2019-04-05T17:39:43.186Z,11.10
2019-04-05T17:42:12.115Z,11.10
2019-04-05T17:44:41.446Z,11.00
2019-04-05T17:47:10.674Z,11.00
2019-04-05T17:49:39.566Z,10.90
2019-04-05T17:52:08.753Z,10.90
2019-04-05T17:54:37.673Z,11.00
2019-04-05T17:57:06.921Z,10.90
2019-04-05T17:59:36.365Z,10.80
2019-04-05T18:02:05.469Z,10.90
2019-04-05T18:04:34.546Z,10.90
2019-04-05T18:07:03.725Z,10.80
2019-04-05T18:09:32.992Z,10.80
2019-04-05T18:12:01.939Z,10.60
2019-04-05T18:14:30.800Z,10.60
2019-04-05T18:16:59.980Z,10.50
2019-04-05T18:19:28.921Z,10.50
2019-04-05T18:21:57.833Z,10.30
2019-04-05T18:24:27.162Z,10.30
2019-04-05T18:26:56.013Z,10.40
2019-04-05T18:29:24.893Z,10.40
2019-04-05T18:31:54.061Z,10.30
2019-04-05T18:34:23.269Z,10.30
2019-04-05T18:36:52.207Z,10.20
2019-04-05T18:39:21.243Z,10.20
2019-04-05T18:41:50.255Z,10.10
2019-04-05T18:44:19.181Z,10.10
2019-04-05T18:46:48.063Z,10.10
2019-04-05T18:49:17.573Z,10.00
2019-04-05T18:51:46.818Z,9.90
2019-04-05T18:54:15.740Z,9.90
2019-04-05T18:56:44.663Z,9.90
2019-04-05T18:59:13.866Z,10.00
2019-04-05T19:01:42.954Z,9.80
2019-04-05T19:04:11.908Z,9.90
2019-04-05T19:06:41.226Z,9.90
2019-04-05T19:09:11.862Z,9.80
2019-04-05T19:11:41.225Z,9.70
2019-04-05T19:14:10.254Z,9.80
2019-04-05T19:16:39.319Z,9.80
2019-04-05T19:19:08.330Z,9.70
2019-04-05T19:21:37.263Z,9.70
2019-04-05T19:24:06.268Z,9.60
2019-04-05T19:26:35.254Z,9.60
2019-04-05T19:29:04.592Z,9.60
2019-04-05T19:49:10.837Z,9.40
2019-04-05T19:51:39.762Z,9.30
2019-04-05T19:54:08.730Z,9.40
2019-04-05T19:56:37.669Z,9.40
2019-04-05T19:59:07.285Z,9.40
2019-04-05T20:01:36.153Z,9.40
2019-04-05T20:04:05.717Z,9.40
2019-04-05T20:06:34.581Z,9.40
2019-04-05T20:09:05.777Z,9.30
2019-04-05T20:11:35.033Z,9.20
2019-04-05T20:14:04.054Z,9.10
2019-04-05T20:16:32.973Z,9.10
2019-04-05T20:19:01.953Z,9.10
2019-04-05T20:21:30.806Z,9.10
2019-04-05T20:23:59.676Z,9.10
2019-04-05T20:26:28.594Z,9.00
2019-04-05T20:28:57.539Z,9.00
2019-04-05T20:31:26.510Z,9.00
2019-04-05T20:33:55.424Z,9.00
2019-04-05T20:36:24.432Z,8.90
2019-04-05T20:38:53.353Z,8.90
2019-04-05T20:41:22.282Z,8.90
2019-04-05T20:43:51.210Z,8.80
2019-04-05T20:46:20.124Z,8.80
2019-04-05T20:48:48.977Z,8.80
2019-04-05T20:51:17.838Z,8.80
2019-04-05T20:53:47.065Z,8.70
2019-04-05T20:56:16.001Z,8.70
2019-04-05T20:58:45.144Z,8.60
2019-04-05T21:01:14.255Z,8.70
2019-04-05T21:03:43.509Z,8.60
2019-04-05T21:06:12.529Z,8.60
2019-04-05T21:08:41.622Z,8.60
2019-04-05T21:11:10.575Z,8.70
2019-04-05T21:13:39.476Z,8.80
2019-04-05T21:16:08.482Z,8.80
2019-04-05T21:18:37.613Z,8.90
2019-04-05T21:21:06.520Z,8.90
2019-04-05T21:23:35.374Z,8.90
2019-04-05T21:26:04.700Z,8.80
2019-04-05T21:28:33.762Z,8.70
2019-04-05T21:31:02.767Z,8.60
2019-04-05T21:33:32.038Z,8.60
2019-04-05T21:36:00.910Z,8.70
2019-04-05T21:38:30.046Z,8.70
2019-04-05T21:40:58.934Z,8.80
2019-04-05T21:43:27.906Z,8.80
2019-04-05T21:45:57.094Z,8.90
2019-04-05T21:48:26.038Z,8.90
2019-04-05T21:50:54.896Z,8.90
2019-04-05T21:53:24.330Z,9.00
2019-04-05T21:55:53.673Z,9.10
2019-04-05T21:58:22.605Z,9.10
2019-04-05T22:00:55.142Z,9.20
2019-04-05T22:03:24.145Z,9.20
2019-04-05T22:05:53.452Z,9.20
2019-04-05T22:08:22.393Z,9.20
2019-04-05T22:10:51.599Z,9.30
2019-04-05T22:13:20.801Z,9.30
2019-04-05T22:15:49.846Z,9.40
2019-04-05T22:18:18.826Z,9.20
2019-04-05T22:20:47.707Z,8.90
2019-04-05T22:23:16.718Z,8.70
2019-04-05T22:25:45.654Z,8.60
2019-04-05T22:28:14.625Z,8.60
2019-04-05T22:30:43.469Z,8.50
2019-04-05T22:33:12.588Z,8.50
2019-04-05T22:35:41.847Z,8.40
2019-04-05T22:38:10.838Z,8.40
2019-04-05T22:40:39.681Z,8.40
2019-04-05T22:43:08.628Z,8.30
2019-04-05T22:45:37.924Z,8.30
2019-04-05T22:48:07.226Z,8.30
2019-04-05T22:50:36.154Z,8.30
2019-04-05T22:53:05.153Z,8.40
2019-04-05T22:55:34.650Z,8.30
2019-04-05T22:58:03.692Z,8.30
2019-04-05T23:00:32.681Z,8.30
2019-04-05T23:03:01.619Z,8.30
2019-04-05T23:05:30.901Z,8.30
2019-04-05T23:07:59.921Z,8.30
2019-04-05T23:10:29.173Z,8.30
2019-04-05T23:12:58.754Z,8.20
2019-04-05T23:15:27.739Z,8.20
2019-04-05T23:17:56.601Z,8.20
2019-04-05T23:20:26.521Z,8.20
2019-04-05T23:22:56.394Z,8.10
2019-04-05T23:25:25.502Z,8.10
2019-04-05T23:27:55.022Z,8.00
2019-04-05T23:30:25.364Z,8.00
2019-04-05T23:32:54.601Z,8.00
2019-04-05T23:35:23.534Z,8.00
2019-04-05T23:37:52.477Z,8.00
2019-04-05T23:40:21.503Z,8.10
2019-04-05T23:42:50.567Z,8.10
2019-04-05T23:45:19.662Z,8.20
2019-04-05T23:47:48.670Z,8.20
2019-04-05T23:50:17.997Z,8.10
2019-04-05T23:52:46.866Z,8.20
2019-04-05T23:55:15.963Z,8.10
2019-04-05T23:57:44.868Z,8.10
